Extreme weather reports worldwide

Snow

Station
 
Location
 
Name
 
Wind
Knots
Gust
Knots
Vis
SM
Temp/Dew
C
Baro
inHg
METAR
 
YTE CYTE Cape Dorset, CA Cape Dorset Airport 16 24 9 -3/-4 29.94 CYTE 272216Z AUTO 25016G24KT 9SM -SN OVC008 M03/M04 A2994 RMK SLP144
USH SAWH Ushuahia, AR Malvinas Argentinas Airport 22 2.8 1/0 29.68 SAWH 272200Z 23022KT 4500 RASN BKN050 OVC012 01/00 Q1005
YUB CYUB Tuktoyaktuk, CA Tuktoyaktuk Airport 17 6 1/-2 29.98 CYUB 272235Z 32017KT 6SM -SN OVC014 01/M02 A2998 RMK SC8 SLP156
BRW PABR Utqia─ívik, US Wiley Post Will Rogers Memorial Airport 15 0.75 0/-1 29.95 PABR 272221Z 13015KT 3/4SM R08/4500V5500FT -SN BR VV005 M01/M02 A2995 RMK AO2 P0001 T10061017
YCY CYCY Clyde River, CA Clyde River Airport 12 6 -6/-7 29.88 CYCY 272226Z AUTO 12012KT 6SM -SN BKN029 BKN039 OVC046 M06/M07 A2988 RMK SLP122

Station
 
Location
 
Name
 
Wind
Knots
Gust
Knots
Vis
SM
Temp/Dew
C
Baro
inHg
METAR
 
YUT CYUT Repulse Bay, CA Naujaat Airport 11 15 -3/-4 29.77 CYUT 272200Z 13011KT 15SM -SN OVC007 M03/M04 A2977 RMK SC8 LAST STFD OBS/NXT 281400Z SLP085
MPN EGYP Mount Pleasant, FK Mount Pleasant Airport 7 0.75 0/0 29.38 EGYP 272150Z 19007KT 1200 SN FEW006 OVC007 00/M00 Q0995
YFB CYFB Iqaluit, CA Iqaluit Airport 6 3 -2/-4 30.10 CYFB 272200Z 14006KT 3SM -SN OVC030 M02/M04 A3010 RMK SC8 SLP199
NZCM 4 6.21 -19/-27 28.97 NZCM 272223Z AUTO 08004KT 9999 -SN SCT026 M19/M27 A2897 RMK AO2 SNB2223 SLP815 T11921273 $
YSY CYSY Sachs Harbour, CA Sachs Harbour (David Nasogaluak Jr. Saaryuaq) Airport 4 10 -3/-3 29.81 CYSY 272200Z 30004KT 10SM -SN OVC004 M03/M03 A2981 RMK ST8 SLP105